sensor_id;sensor_type;location;lat;lon;timestamp;temperature;humidity
42755;DHT22;28407;51.830;5.684;2022-08-18T00:01:57;22.60;76.30
42755;DHT22;28407;51.830;5.684;2022-08-18T00:04:00;22.70;76.40
42755;DHT22;28407;51.830;5.684;2022-08-18T00:06:01;22.60;76.30
42755;DHT22;28407;51.830;5.684;2022-08-18T00:08:02;22.60;76.40
42755;DHT22;28407;51.830;5.684;2022-08-18T00:10:04;22.60;76.40
42755;DHT22;28407;51.830;5.684;2022-08-18T00:12:11;22.60;76.40
42755;DHT22;28407;51.830;5.684;2022-08-18T00:14:17;22.60;76.40
42755;DHT22;28407;51.830;5.684;2022-08-18T00:16:18;22.60;77.10
42755;DHT22;28407;51.830;5.684;2022-08-18T00:18:18;22.60;76.40
42755;DHT22;28407;51.830;5.684;2022-08-18T00:20:22;22.60;76.40
42755;DHT22;28407;51.830;5.684;2022-08-18T00:22:23;22.60;76.50
42755;DHT22;28407;51.830;5.684;2022-08-18T00:24:25;22.60;76.50
42755;DHT22;28407;51.830;5.684;2022-08-18T00:26:25;22.60;76.60
42755;DHT22;28407;51.830;5.684;2022-08-18T00:28:26;22.60;76.60
42755;DHT22;28407;51.830;5.684;2022-08-18T00:30:26;22.60;76.60
42755;DHT22;28407;51.830;5.684;2022-08-18T00:32:33;22.60;76.70
42755;DHT22;28407;51.830;5.684;2022-08-18T00:34:35;22.60;77.30
42755;DHT22;28407;51.830;5.684;2022-08-18T00:36:35;22.60;76.70
42755;DHT22;28407;51.830;5.684;2022-08-18T00:38:37;22.60;76.70
42755;DHT22;28407;51.830;5.684;2022-08-18T00:40:45;22.60;76.70
42755;DHT22;28407;51.830;5.684;2022-08-18T00:42:51;22.60;76.70
42755;DHT22;28407;51.830;5.684;2022-08-18T00:44:52;22.60;76.70
42755;DHT22;28407;51.830;5.684;2022-08-18T00:46:54;22.60;76.70
42755;DHT22;28407;51.830;5.684;2022-08-18T00:48:55;22.50;76.60
42755;DHT22;28407;51.830;5.684;2022-08-18T00:51:03;22.50;76.70
42755;DHT22;28407;51.830;5.684;2022-08-18T00:55:23;22.50;76.80
42755;DHT22;28407;51.830;5.684;2022-08-18T00:57:24;22.50;76.80
42755;DHT22;28407;51.830;5.684;2022-08-18T00:59:43;22.40;76.80
42755;DHT22;28407;51.830;5.684;2022-08-18T01:01:45;22.40;76.80
42755;DHT22;28407;51.830;5.684;2022-08-18T01:03:49;22.40;76.80
42755;DHT22;28407;51.830;5.684;2022-08-18T01:06:00;22.40;76.80
42755;DHT22;28407;51.830;5.684;2022-08-18T01:08:03;22.40;76.80
42755;DHT22;28407;51.830;5.684;2022-08-18T01:10:04;22.40;76.80
42755;DHT22;28407;51.830;5.684;2022-08-18T01:12:05;22.40;76.80
42755;DHT22;28407;51.830;5.684;2022-08-18T01:14:07;22.30;76.80
42755;DHT22;28407;51.830;5.684;2022-08-18T01:16:08;22.30;76.80
42755;DHT22;28407;51.830;5.684;2022-08-18T01:18:28;22.30;76.80
42755;DHT22;28407;51.830;5.684;2022-08-18T01:23:18;22.30;76.70
42755;DHT22;28407;51.830;5.684;2022-08-18T01:25:20;22.20;76.60
42755;DHT22;28407;51.830;5.684;2022-08-18T01:27:40;22.20;76.60
42755;DHT22;28407;51.830;5.684;2022-08-18T01:29:41;22.20;76.70
42755;DHT22;28407;51.830;5.684;2022-08-18T01:31:47;22.20;76.60
42755;DHT22;28407;51.830;5.684;2022-08-18T01:33:50;22.20;76.70
42755;DHT22;28407;51.830;5.684;2022-08-18T01:35:52;22.10;76.60
42755;DHT22;28407;51.830;5.684;2022-08-18T01:37:53;22.10;76.60
42755;DHT22;28407;51.830;5.684;2022-08-18T01:39:54;22.10;76.60
42755;DHT22;28407;51.830;5.684;2022-08-18T01:41:55;22.10;76.60
42755;DHT22;28407;51.830;5.684;2022-08-18T01:43:59;22.10;76.60
42755;DHT22;28407;51.830;5.684;2022-08-18T01:46:00;22.10;76.60
42755;DHT22;28407;51.830;5.684;2022-08-18T01:48:03;22.10;76.60
42755;DHT22;28407;51.830;5.684;2022-08-18T01:50:04;22.10;76.60
42755;DHT22;28407;51.830;5.684;2022-08-18T01:52:06;22.00;76.50
42755;DHT22;28407;51.830;5.684;2022-08-18T01:54:11;22.00;76.40
42755;DHT22;28407;51.830;5.684;2022-08-18T01:56:13;22.00;76.50
42755;DHT22;28407;51.830;5.684;2022-08-18T01:58:16;22.00;76.50
42755;DHT22;28407;51.830;5.684;2022-08-18T02:00:17;22.00;76.50
42755;DHT22;28407;51.830;5.684;2022-08-18T02:02:25;21.90;76.40
42755;DHT22;28407;51.830;5.684;2022-08-18T02:04:29;21.90;76.50
42755;DHT22;28407;51.830;5.684;2022-08-18T02:06:33;21.90;76.50
42755;DHT22;28407;51.830;5.684;2022-08-18T02:08:33;21.90;76.50
42755;DHT22;28407;51.830;5.684;2022-08-18T02:10:34;21.90;76.40
42755;DHT22;28407;51.830;5.684;2022-08-18T02:12:35;21.90;76.40
42755;DHT22;28407;51.830;5.684;2022-08-18T02:14:36;21.90;76.40
42755;DHT22;28407;51.830;5.684;2022-08-18T02:16:37;21.90;76.40
42755;DHT22;28407;51.830;5.684;2022-08-18T02:18:37;21.90;76.40
42755;DHT22;28407;51.830;5.684;2022-08-18T02:20:38;21.90;76.40
42755;DHT22;28407;51.830;5.684;2022-08-18T02:22:40;21.80;76.40
42755;DHT22;28407;51.830;5.684;2022-08-18T02:24:42;21.80;76.40
42755;DHT22;28407;51.830;5.684;2022-08-18T02:26:43;21.90;76.40
42755;DHT22;28407;51.830;5.684;2022-08-18T02:28:43;21.90;76.40
42755;DHT22;28407;51.830;5.684;2022-08-18T02:30:44;21.90;76.40
42755;DHT22;28407;51.830;5.684;2022-08-18T02:32:45;21.90;76.40
42755;DHT22;28407;51.830;5.684;2022-08-18T02:34:45;21.90;76.40
42755;DHT22;28407;51.830;5.684;2022-08-18T02:36:46;21.90;76.40
42755;DHT22;28407;51.830;5.684;2022-08-18T02:38:46;21.90;76.40
42755;DHT22;28407;51.830;5.684;2022-08-18T02:40:56;21.90;76.40
42755;DHT22;28407;51.830;5.684;2022-08-18T02:42:57;21.90;76.40
42755;DHT22;28407;51.830;5.684;2022-08-18T02:44:58;21.90;76.40
42755;DHT22;28407;51.830;5.684;2022-08-18T02:46:59;21.90;76.40
42755;DHT22;28407;51.830;5.684;2022-08-18T02:49:00;21.90;76.40
42755;DHT22;28407;51.830;5.684;2022-08-18T02:51:02;21.90;77.10
42755;DHT22;28407;51.830;5.684;2022-08-18T02:53:03;21.90;76.40
42755;DHT22;28407;51.830;5.684;2022-08-18T02:55:03;21.90;76.40
42755;DHT22;28407;51.830;5.684;2022-08-18T02:57:07;21.90;76.40
42755;DHT22;28407;51.830;5.684;2022-08-18T02:59:13;21.90;76.50
42755;DHT22;28407;51.830;5.684;2022-08-18T03:01:13;21.90;76.50
42755;DHT22;28407;51.830;5.684;2022-08-18T03:03:14;21.90;76.50
42755;DHT22;28407;51.830;5.684;2022-08-18T03:05:15;21.90;76.50
42755;DHT22;28407;51.830;5.684;2022-08-18T03:07:15;21.90;76.50
42755;DHT22;28407;51.830;5.684;2022-08-18T03:09:17;21.90;76.60
42755;DHT22;28407;51.830;5.684;2022-08-18T03:11:21;21.90;76.60
42755;DHT22;28407;51.830;5.684;2022-08-18T03:13:23;22.00;76.60
42755;DHT22;28407;51.830;5.684;2022-08-18T03:15:24;21.90;76.60
42755;DHT22;28407;51.830;5.684;2022-08-18T03:17:25;21.90;76.60
42755;DHT22;28407;51.830;5.684;2022-08-18T03:19:27;21.90;76.60
42755;DHT22;28407;51.830;5.684;2022-08-18T03:21:31;21.90;76.60
42755;DHT22;28407;51.830;5.684;2022-08-18T03:23:34;21.90;76.70
42755;DHT22;28407;51.830;5.684;2022-08-18T03:25:41;21.90;76.70
42755;DHT22;28407;51.830;5.684;2022-08-18T03:27:42;21.90;76.70
42755;DHT22;28407;51.830;5.684;2022-08-18T03:29:43;21.90;76.70
42755;DHT22;28407;51.830;5.684;2022-08-18T03:31:43;21.90;76.70
42755;DHT22;28407;51.830;5.684;2022-08-18T03:33:46;21.90;76.70
42755;DHT22;28407;51.830;5.684;2022-08-18T03:35:47;21.90;76.70
42755;DHT22;28407;51.830;5.684;2022-08-18T03:37:47;21.90;76.70
42755;DHT22;28407;51.830;5.684;2022-08-18T03:39:48;21.90;76.70
42755;DHT22;28407;51.830;5.684;2022-08-18T03:41:51;21.90;76.80
42755;DHT22;28407;51.830;5.684;2022-08-18T03:43:53;21.90;76.80
42755;DHT22;28407;51.830;5.684;2022-08-18T03:45:54;21.90;76.80
42755;DHT22;28407;51.830;5.684;2022-08-18T03:47:54;21.90;76.80
42755;DHT22;28407;51.830;5.684;2022-08-18T03:49:55;21.90;76.80
42755;DHT22;28407;51.830;5.684;2022-08-18T03:51:56;21.90;76.80
42755;DHT22;28407;51.830;5.684;2022-08-18T03:54:01;21.90;76.80
42755;DHT22;28407;51.830;5.684;2022-08-18T03:56:07;21.90;76.80
42755;DHT22;28407;51.830;5.684;2022-08-18T03:58:15;21.90;76.90
42755;DHT22;28407;51.830;5.684;2022-08-18T04:00:16;21.90;76.90
42755;DHT22;28407;51.830;5.684;2022-08-18T04:02:17;21.90;77.00
42755;DHT22;28407;51.830;5.684;2022-08-18T04:04:21;21.80;76.90
42755;DHT22;28407;51.830;5.684;2022-08-18T04:06:28;21.90;77.00
42755;DHT22;28407;51.830;5.684;2022-08-18T04:08:29;21.90;77.10
42755;DHT22;28407;51.830;5.684;2022-08-18T04:10:29;21.90;77.00
42755;DHT22;28407;51.830;5.684;2022-08-18T04:12:30;21.90;77.00
42755;DHT22;28407;51.830;5.684;2022-08-18T04:14:31;21.90;77.00
42755;DHT22;28407;51.830;5.684;2022-08-18T04:16:32;21.90;77.00
42755;DHT22;28407;51.830;5.684;2022-08-18T04:18:34;21.90;77.00
42755;DHT22;28407;51.830;5.684;2022-08-18T04:20:35;21.90;77.10
42755;DHT22;28407;51.830;5.684;2022-08-18T04:22:35;21.90;77.10
42755;DHT22;28407;51.830;5.684;2022-08-18T04:24:36;21.90;77.10
42755;DHT22;28407;51.830;5.684;2022-08-18T04:26:41;21.90;77.00
42755;DHT22;28407;51.830;5.684;2022-08-18T04:28:42;21.90;77.00
42755;DHT22;28407;51.830;5.684;2022-08-18T04:30:42;21.90;77.70
42755;DHT22;28407;51.830;5.684;2022-08-18T04:32:43;21.90;77.00
42755;DHT22;28407;51.830;5.684;2022-08-18T04:34:44;21.90;77.00
42755;DHT22;28407;51.830;5.684;2022-08-18T04:36:45;21.90;77.00
42755;DHT22;28407;51.830;5.684;2022-08-18T04:38:46;21.90;77.00
42755;DHT22;28407;51.830;5.684;2022-08-18T04:40:46;21.90;77.00
42755;DHT22;28407;51.830;5.684;2022-08-18T04:42:47;21.90;77.10
42755;DHT22;28407;51.830;5.684;2022-08-18T04:44:48;21.90;77.10
42755;DHT22;28407;51.830;5.684;2022-08-18T04:46:51;21.80;77.10
42755;DHT22;28407;51.830;5.684;2022-08-18T04:48:52;21.90;77.20
42755;DHT22;28407;51.830;5.684;2022-08-18T04:51:15;21.80;77.10
42755;DHT22;28407;51.830;5.684;2022-08-18T04:53:16;21.80;77.20
42755;DHT22;28407;51.830;5.684;2022-08-18T04:55:35;21.80;77.20
42755;DHT22;28407;51.830;5.684;2022-08-18T04:57:36;21.90;77.30
42755;DHT22;28407;51.830;5.684;2022-08-18T04:59:37;21.90;77.30
42755;DHT22;28407;51.830;5.684;2022-08-18T05:01:42;21.90;77.30
42755;DHT22;28407;51.830;5.684;2022-08-18T05:03:48;21.90;77.30
42755;DHT22;28407;51.830;5.684;2022-08-18T05:05:49;21.90;77.30
42755;DHT22;28407;51.830;5.684;2022-08-18T05:07:50;21.90;77.30
42755;DHT22;28407;51.830;5.684;2022-08-18T05:09:50;21.90;77.30
42755;DHT22;28407;51.830;5.684;2022-08-18T05:11:53;21.90;77.30
42755;DHT22;28407;51.830;5.684;2022-08-18T05:13:55;21.90;77.30
42755;DHT22;28407;51.830;5.684;2022-08-18T05:15:59;21.90;77.30
42755;DHT22;28407;51.830;5.684;2022-08-18T05:18:03;21.90;77.30
42755;DHT22;28407;51.830;5.684;2022-08-18T05:20:07;21.90;77.30
42755;DHT22;28407;51.830;5.684;2022-08-18T05:22:08;21.90;77.30
42755;DHT22;28407;51.830;5.684;2022-08-18T05:24:09;21.90;77.30
42755;DHT22;28407;51.830;5.684;2022-08-18T05:26:13;21.90;77.30
42755;DHT22;28407;51.830;5.684;2022-08-18T05:28:15;21.90;77.30
42755;DHT22;28407;51.830;5.684;2022-08-18T05:30:15;21.90;77.30
42755;DHT22;28407;51.830;5.684;2022-08-18T05:32:16;21.90;77.30
42755;DHT22;28407;51.830;5.684;2022-08-18T05:34:18;21.90;77.30
42755;DHT22;28407;51.830;5.684;2022-08-18T05:38:38;21.90;77.30
42755;DHT22;28407;51.830;5.684;2022-08-18T05:40:43;21.90;77.30
42755;DHT22;28407;51.830;5.684;2022-08-18T05:42:45;22.00;77.30
42755;DHT22;28407;51.830;5.684;2022-08-18T05:44:48;21.90;77.20
42755;DHT22;28407;51.830;5.684;2022-08-18T05:46:55;21.90;77.20
42755;DHT22;28407;51.830;5.684;2022-08-18T05:48:56;21.90;77.30
42755;DHT22;28407;51.830;5.684;2022-08-18T05:50:58;22.00;77.30
42755;DHT22;28407;51.830;5.684;2022-08-18T05:53:08;22.00;77.30
42755;DHT22;28407;51.830;5.684;2022-08-18T05:55:16;22.00;77.30
42755;DHT22;28407;51.830;5.684;2022-08-18T05:57:46;22.00;77.40
42755;DHT22;28407;51.830;5.684;2022-08-18T05:59:51;21.90;77.30
42755;DHT22;28407;51.830;5.684;2022-08-18T06:01:57;21.90;77.20
42755;DHT22;28407;51.830;5.684;2022-08-18T06:04:05;21.90;77.20
42755;DHT22;28407;51.830;5.684;2022-08-18T06:06:12;21.90;77.20
42755;DHT22;28407;51.830;5.684;2022-08-18T06:08:15;22.00;77.20
42755;DHT22;28407;51.830;5.684;2022-08-18T06:10:18;22.00;77.30
42755;DHT22;28407;51.830;5.684;2022-08-18T06:12:26;22.00;77.30
42755;DHT22;28407;51.830;5.684;2022-08-18T06:14:28;22.00;77.20
42755;DHT22;28407;51.830;5.684;2022-08-18T06:16:41;22.00;77.20
42755;DHT22;28407;51.830;5.684;2022-08-18T06:26:20;22.10;77.00
42755;DHT22;28407;51.830;5.684;2022-08-18T06:28:23;22.10;77.00
42755;DHT22;28407;51.830;5.684;2022-08-18T06:30:43;22.10;77.00
42755;DHT22;28407;51.830;5.684;2022-08-18T06:32:59;22.10;77.00
42755;DHT22;28407;51.830;5.684;2022-08-18T06:40:10;22.10;76.90
42755;DHT22;28407;51.830;5.684;2022-08-18T06:42:11;22.20;76.90
42755;DHT22;28407;51.830;5.684;2022-08-18T06:44:18;22.10;76.80
42755;DHT22;28407;51.830;5.684;2022-08-18T06:46:25;22.10;76.80
42755;DHT22;28407;51.830;5.684;2022-08-18T06:48:55;22.20;76.80
42755;DHT22;28407;51.830;5.684;2022-08-18T06:51:00;22.20;76.80
42755;DHT22;28407;51.830;5.684;2022-08-18T06:53:04;22.20;76.70
42755;DHT22;28407;51.830;5.684;2022-08-18T06:55:14;22.30;76.70
42755;DHT22;28407;51.830;5.684;2022-08-18T06:57:25;22.30;76.70
42755;DHT22;28407;51.830;5.684;2022-08-18T06:59:30;22.40;76.70
42755;DHT22;28407;51.830;5.684;2022-08-18T07:01:31;22.40;76.60
42755;DHT22;28407;51.830;5.684;2022-08-18T07:03:45;22.40;76.60
42755;DHT22;28407;51.830;5.684;2022-08-18T07:06:04;22.40;76.70
42755;DHT22;28407;51.830;5.684;2022-08-18T07:08:16;22.40;76.70
42755;DHT22;28407;51.830;5.684;2022-08-18T07:12:21;22.40;76.60
42755;DHT22;28407;51.830;5.684;2022-08-18T07:14:23;22.40;76.60
42755;DHT22;28407;51.830;5.684;2022-08-18T07:18:28;22.40;76.60
42755;DHT22;28407;51.830;5.684;2022-08-18T07:20:29;22.40;76.60
42755;DHT22;28407;51.830;5.684;2022-08-18T07:22:30;22.40;76.60
42755;DHT22;28407;51.830;5.684;2022-08-18T07:24:34;22.40;76.60
42755;DHT22;28407;51.830;5.684;2022-08-18T07:29:12;22.40;76.50
42755;DHT22;28407;51.830;5.684;2022-08-18T07:33:24;22.60;76.30
42755;DHT22;28407;51.830;5.684;2022-08-18T07:37:47;22.60;76.20
42755;DHT22;28407;51.830;5.684;2022-08-18T07:39:55;22.70;76.20
42755;DHT22;28407;51.830;5.684;2022-08-18T07:42:15;22.70;76.10
42755;DHT22;28407;51.830;5.684;2022-08-18T07:44:30;22.70;76.00
42755;DHT22;28407;51.830;5.684;2022-08-18T07:46:35;22.80;75.90
42755;DHT22;28407;51.830;5.684;2022-08-18T07:48:37;22.90;75.70
42755;DHT22;28407;51.830;5.684;2022-08-18T07:51:14;22.90;75.60
42755;DHT22;28407;51.830;5.684;2022-08-18T07:53:37;22.90;75.40
42755;DHT22;28407;51.830;5.684;2022-08-18T07:55:43;23.00;75.40
42755;DHT22;28407;51.830;5.684;2022-08-18T08:00:39;23.10;75.20
42755;DHT22;28407;51.830;5.684;2022-08-18T08:07:23;23.10;74.80
42755;DHT22;28407;51.830;5.684;2022-08-18T08:11:55;23.30;74.70
42755;DHT22;28407;51.830;5.684;2022-08-18T08:14:12;23.30;74.60
42755;DHT22;28407;51.830;5.684;2022-08-18T08:16:25;23.30;74.50
42755;DHT22;28407;51.830;5.684;2022-08-18T08:18:39;23.30;74.40
42755;DHT22;28407;51.830;5.684;2022-08-18T08:20:54;23.40;74.40
42755;DHT22;28407;51.830;5.684;2022-08-18T08:26:15;23.40;74.00
42755;DHT22;28407;51.830;5.684;2022-08-18T08:28:36;23.50;73.80
42755;DHT22;28407;51.830;5.684;2022-08-18T08:30:47;23.50;73.70
42755;DHT22;28407;51.830;5.684;2022-08-18T08:35:04;23.60;73.50
42755;DHT22;28407;51.830;5.684;2022-08-18T08:37:23;23.60;73.40
42755;DHT22;28407;51.830;5.684;2022-08-18T08:39:48;23.70;73.30
42755;DHT22;28407;51.830;5.684;2022-08-18T08:42:15;23.70;73.10
42755;DHT22;28407;51.830;5.684;2022-08-18T08:46:22;23.80;73.00
42755;DHT22;28407;51.830;5.684;2022-08-18T08:48:26;23.80;73.00
42755;DHT22;28407;51.830;5.684;2022-08-18T08:50:33;23.80;73.00
42755;DHT22;28407;51.830;5.684;2022-08-18T08:52:43;23.80;73.00
42755;DHT22;28407;51.830;5.684;2022-08-18T08:54:59;23.80;73.00
42755;DHT22;28407;51.830;5.684;2022-08-18T08:57:01;23.80;72.90
42755;DHT22;28407;51.830;5.684;2022-08-18T08:59:08;23.80;73.00
42755;DHT22;28407;51.830;5.684;2022-08-18T09:01:15;23.80;72.80
42755;DHT22;28407;51.830;5.684;2022-08-18T09:05:22;23.80;72.80
42755;DHT22;28407;51.830;5.684;2022-08-18T09:10:05;23.80;72.70
42755;DHT22;28407;51.830;5.684;2022-08-18T09:23:07;23.90;72.10
42755;DHT22;28407;51.830;5.684;2022-08-18T09:27:43;24.10;71.70
42755;DHT22;28407;51.830;5.684;2022-08-18T09:29:57;24.10;71.50
42755;DHT22;28407;51.830;5.684;2022-08-18T09:38:54;24.40;70.40
42755;DHT22;28407;51.830;5.684;2022-08-18T09:41:24;24.40;70.10
42755;DHT22;28407;51.830;5.684;2022-08-18T09:43:50;24.50;70.00
42755;DHT22;28407;51.830;5.684;2022-08-18T09:45:59;24.50;69.90
42755;DHT22;28407;51.830;5.684;2022-08-18T09:54:26;24.60;69.70
42755;DHT22;28407;51.830;5.684;2022-08-18T09:58:55;24.60;69.40
42755;DHT22;28407;51.830;5.684;2022-08-18T10:01:35;24.60;69.40
42755;DHT22;28407;51.830;5.684;2022-08-18T10:03:36;24.70;69.20
42755;DHT22;28407;51.830;5.684;2022-08-18T10:05:37;24.70;69.10
42755;DHT22;28407;51.830;5.684;2022-08-18T10:07:47;24.80;68.80
42755;DHT22;28407;51.830;5.684;2022-08-18T10:10:09;24.80;68.50
42755;DHT22;28407;51.830;5.684;2022-08-18T10:12:24;24.90;68.20
42755;DHT22;28407;51.830;5.684;2022-08-18T10:17:02;24.90;67.70
42755;DHT22;28407;51.830;5.684;2022-08-18T10:19:11;25.00;67.50
42755;DHT22;28407;51.830;5.684;2022-08-18T10:23:43;25.20;67.20
42755;DHT22;28407;51.830;5.684;2022-08-18T10:25:45;25.20;66.90
42755;DHT22;28407;51.830;5.684;2022-08-18T10:27:53;25.20;66.90
42755;DHT22;28407;51.830;5.684;2022-08-18T10:29:56;25.30;66.80
42755;DHT22;28407;51.830;5.684;2022-08-18T10:36:01;25.40;66.60
42755;DHT22;28407;51.830;5.684;2022-08-18T10:38:13;25.40;66.40
42755;DHT22;28407;51.830;5.684;2022-08-18T10:40:18;25.40;66.20
42755;DHT22;28407;51.830;5.684;2022-08-18T10:42:39;25.60;66.00
42755;DHT22;28407;51.830;5.684;2022-08-18T10:44:43;25.60;65.60
42755;DHT22;28407;51.830;5.684;2022-08-18T10:46:44;25.70;65.30
42755;DHT22;28407;51.830;5.684;2022-08-18T10:51:32;25.80;64.80
42755;DHT22;28407;51.830;5.684;2022-08-18T10:56:30;25.90;64.50
42755;DHT22;28407;51.830;5.684;2022-08-18T10:58:49;25.90;64.50
42755;DHT22;28407;51.830;5.684;2022-08-18T11:03:56;25.90;64.60
42755;DHT22;28407;51.830;5.684;2022-08-18T11:06:04;26.00;64.60
42755;DHT22;28407;51.830;5.684;2022-08-18T11:08:16;26.00;64.40
42755;DHT22;28407;51.830;5.684;2022-08-18T11:10:22;26.10;64.80
42755;DHT22;28407;51.830;5.684;2022-08-18T11:15:03;26.20;63.70
42755;DHT22;28407;51.830;5.684;2022-08-18T11:17:19;26.30;63.60
42755;DHT22;28407;51.830;5.684;2022-08-18T11:19:24;26.40;63.30
42755;DHT22;28407;51.830;5.684;2022-08-18T11:23:37;26.60;62.90
42755;DHT22;28407;51.830;5.684;2022-08-18T11:25:39;26.60;62.60
42755;DHT22;28407;51.830;5.684;2022-08-18T11:27:45;26.70;62.40
42755;DHT22;28407;51.830;5.684;2022-08-18T11:29:46;26.80;62.00
42755;DHT22;28407;51.830;5.684;2022-08-18T11:31:49;26.90;61.80
42755;DHT22;28407;51.830;5.684;2022-08-18T11:33:51;27.00;61.60
42755;DHT22;28407;51.830;5.684;2022-08-18T11:35:56;27.00;61.40
42755;DHT22;28407;51.830;5.684;2022-08-18T11:38:04;27.00;61.20
42755;DHT22;28407;51.830;5.684;2022-08-18T11:40:21;27.10;61.10
42755;DHT22;28407;51.830;5.684;2022-08-18T11:42:30;27.10;61.00
42755;DHT22;28407;51.830;5.684;2022-08-18T11:44:36;27.10;60.80
42755;DHT22;28407;51.830;5.684;2022-08-18T11:46:38;27.10;60.70
42755;DHT22;28407;51.830;5.684;2022-08-18T11:52:54;27.10;60.40
42755;DHT22;28407;51.830;5.684;2022-08-18T11:55:05;27.10;61.00
42755;DHT22;28407;51.830;5.684;2022-08-18T11:57:28;27.20;60.20
42755;DHT22;28407;51.830;5.684;2022-08-18T11:59:31;27.40;59.80
42755;DHT22;28407;51.830;5.684;2022-08-18T12:03:43;27.40;59.50
42755;DHT22;28407;51.830;5.684;2022-08-18T12:05:49;27.40;59.40
42755;DHT22;28407;51.830;5.684;2022-08-18T12:07:50;27.50;59.30
42755;DHT22;28407;51.830;5.684;2022-08-18T12:10:15;27.50;59.20
42755;DHT22;28407;51.830;5.684;2022-08-18T12:12:27;27.60;59.00
42755;DHT22;28407;51.830;5.684;2022-08-18T12:16:56;27.60;59.10
42755;DHT22;28407;51.830;5.684;2022-08-18T12:18:57;27.60;59.00
42755;DHT22;28407;51.830;5.684;2022-08-18T12:20:57;27.70;58.80
42755;DHT22;28407;51.830;5.684;2022-08-18T12:22:58;27.60;58.70
42755;DHT22;28407;51.830;5.684;2022-08-18T12:24:59;27.70;58.70
42755;DHT22;28407;51.830;5.684;2022-08-18T12:27:00;27.60;58.60
42755;DHT22;28407;51.830;5.684;2022-08-18T12:29:00;27.60;58.70
42755;DHT22;28407;51.830;5.684;2022-08-18T12:31:01;27.60;58.80
42755;DHT22;28407;51.830;5.684;2022-08-18T12:33:02;27.60;59.50
42755;DHT22;28407;51.830;5.684;2022-08-18T12:35:05;27.60;58.70
42755;DHT22;28407;51.830;5.684;2022-08-18T12:37:08;27.60;58.70
42755;DHT22;28407;51.830;5.684;2022-08-18T12:39:09;27.60;58.50
42755;DHT22;28407;51.830;5.684;2022-08-18T12:41:10;27.70;58.40
42755;DHT22;28407;51.830;5.684;2022-08-18T12:43:11;27.80;58.30
42755;DHT22;28407;51.830;5.684;2022-08-18T12:45:12;27.80;58.30
42755;DHT22;28407;51.830;5.684;2022-08-18T12:47:19;27.80;58.20
42755;DHT22;28407;51.830;5.684;2022-08-18T12:49:22;27.80;58.10
42755;DHT22;28407;51.830;5.684;2022-08-18T12:51:24;27.90;58.10
42755;DHT22;28407;51.830;5.684;2022-08-18T12:53:25;27.80;57.90
42755;DHT22;28407;51.830;5.684;2022-08-18T12:55:27;27.90;58.00
42755;DHT22;28407;51.830;5.684;2022-08-18T12:57:29;27.90;58.00
42755;DHT22;28407;51.830;5.684;2022-08-18T12:59:29;27.90;58.10
42755;DHT22;28407;51.830;5.684;2022-08-18T13:01:30;27.90;58.10
42755;DHT22;28407;51.830;5.684;2022-08-18T13:03:31;27.80;58.10
42755;DHT22;28407;51.830;5.684;2022-08-18T13:05:33;27.80;58.20
42755;DHT22;28407;51.830;5.684;2022-08-18T13:07:35;27.80;58.20
42755;DHT22;28407;51.830;5.684;2022-08-18T13:09:36;27.70;58.20
42755;DHT22;28407;51.830;5.684;2022-08-18T13:11:37;27.80;58.20
42755;DHT22;28407;51.830;5.684;2022-08-18T13:13:41;27.80;58.20
42755;DHT22;28407;51.830;5.684;2022-08-18T13:15:42;27.80;58.10
42755;DHT22;28407;51.830;5.684;2022-08-18T13:17:42;27.80;58.20
42755;DHT22;28407;51.830;5.684;2022-08-18T13:19:43;27.70;58.10
42755;DHT22;28407;51.830;5.684;2022-08-18T13:21:43;27.80;58.20
42755;DHT22;28407;51.830;5.684;2022-08-18T13:23:44;27.70;58.20
42755;DHT22;28407;51.830;5.684;2022-08-18T13:25:45;27.70;58.20
42755;DHT22;28407;51.830;5.684;2022-08-18T13:27:45;27.70;58.20
42755;DHT22;28407;51.830;5.684;2022-08-18T13:29:46;27.60;58.20
42755;DHT22;28407;51.830;5.684;2022-08-18T13:31:47;27.60;58.30
42755;DHT22;28407;51.830;5.684;2022-08-18T13:33:48;27.60;58.40
42755;DHT22;28407;51.830;5.684;2022-08-18T13:35:51;27.50;58.40
42755;DHT22;28407;51.830;5.684;2022-08-18T13:37:51;27.50;58.40
42755;DHT22;28407;51.830;5.684;2022-08-18T13:39:54;27.40;58.50
42755;DHT22;28407;51.830;5.684;2022-08-18T13:41:55;27.30;58.50
42755;DHT22;28407;51.830;5.684;2022-08-18T13:43:55;27.30;58.60
42755;DHT22;28407;51.830;5.684;2022-08-18T13:45:56;27.30;58.70
42755;DHT22;28407;51.830;5.684;2022-08-18T13:47:57;27.20;58.70
42755;DHT22;28407;51.830;5.684;2022-08-18T13:49:57;27.20;58.80
42755;DHT22;28407;51.830;5.684;2022-08-18T13:51:59;27.20;59.50
42755;DHT22;28407;51.830;5.684;2022-08-18T13:53:59;27.20;59.60
42755;DHT22;28407;51.830;5.684;2022-08-18T13:56:00;27.20;59.00
42755;DHT22;28407;51.830;5.684;2022-08-18T13:58:01;27.20;59.00
42755;DHT22;28407;51.830;5.684;2022-08-18T14:00:07;27.20;58.90
42755;DHT22;28407;51.830;5.684;2022-08-18T14:02:12;27.20;58.80
42755;DHT22;28407;51.830;5.684;2022-08-18T14:04:14;27.20;58.70
42755;DHT22;28407;51.830;5.684;2022-08-18T14:06:14;27.30;58.70
42755;DHT22;28407;51.830;5.684;2022-08-18T14:08:15;27.40;58.60
42755;DHT22;28407;51.830;5.684;2022-08-18T14:10:16;27.50;58.50
42755;DHT22;28407;51.830;5.684;2022-08-18T14:12:22;27.60;58.30
42755;DHT22;28407;51.830;5.684;2022-08-18T14:14:23;27.80;58.00
42755;DHT22;28407;51.830;5.684;2022-08-18T14:16:24;27.90;57.60
42755;DHT22;28407;51.830;5.684;2022-08-18T14:18:25;28.00;57.40
42755;DHT22;28407;51.830;5.684;2022-08-18T14:20:26;28.20;57.30
42755;DHT22;28407;51.830;5.684;2022-08-18T14:22:45;28.30;57.10
42755;DHT22;28407;51.830;5.684;2022-08-18T14:25:04;28.40;57.00
42755;DHT22;28407;51.830;5.684;2022-08-18T14:27:30;28.50;56.70
42755;DHT22;28407;51.830;5.684;2022-08-18T14:29:30;28.60;56.50
42755;DHT22;28407;51.830;5.684;2022-08-18T14:31:32;28.70;56.40
42755;DHT22;28407;51.830;5.684;2022-08-18T14:33:33;28.80;56.20
42755;DHT22;28407;51.830;5.684;2022-08-18T14:35:35;28.90;56.10
42755;DHT22;28407;51.830;5.684;2022-08-18T14:37:36;29.00;55.90
42755;DHT22;28407;51.830;5.684;2022-08-18T14:39:37;29.10;55.60
42755;DHT22;28407;51.830;5.684;2022-08-18T14:41:38;29.20;55.40
42755;DHT22;28407;51.830;5.684;2022-08-18T14:43:39;29.30;55.10
42755;DHT22;28407;51.830;5.684;2022-08-18T14:45:41;29.40;54.90
42755;DHT22;28407;51.830;5.684;2022-08-18T14:47:47;29.50;54.80
42755;DHT22;28407;51.830;5.684;2022-08-18T14:49:48;29.50;54.60
42755;DHT22;28407;51.830;5.684;2022-08-18T14:51:49;29.50;54.70
42755;DHT22;28407;51.830;5.684;2022-08-18T14:53:49;29.60;54.70
42755;DHT22;28407;51.830;5.684;2022-08-18T14:55:51;29.60;54.40
42755;DHT22;28407;51.830;5.684;2022-08-18T14:57:52;29.80;54.20
42755;DHT22;28407;51.830;5.684;2022-08-18T14:59:52;29.80;54.10
42755;DHT22;28407;51.830;5.684;2022-08-18T15:01:54;29.90;54.20